Regional Weather

 

KMKL - Jackson, TN, USA
Distance from station: WNW 50mi, 81km
Updated: Tue, Oct-16-2018 11:53am CDT
Partly cloudy
Partly cloudy
 Wind from NNE
Wind: NNE 5 mph , 7 km/h
Temperature: 52°F , 11°C
Dew Point: 45°F , 7°C
Humidity: 77%
Barometer: 30.28 inHg , 1025.4 hPa
Clouds: Partly cloudy
Visibility: 10 miles , 16 km
Cloud details: Partly cloudy 10000 ft
2018/10/16 16:53 KMKL 161653Z 02004KT 10SM SCT100 11/07 A3028 RMK AO2 SLP254 T01060067 $
KMEM - Memphis, TN, USA
Distance from station: W 108mi, 173km
Updated: Tue, Oct-16-2018 11:54am CDT
Light rain, Overcast
Light rain, Overcast
 Wind from N
Wind: N 9 mph , 15 km/h
Temperature: 50°F , 10°C
Wind Chill: 46°F , 8°C
Dew Point: 45°F , 7°C
Humidity: 82%
Barometer: 30.28 inHg , 1025.4 hPa
Summary: Light rain
Clouds: Overcast
Visibility: 10 miles , 16 km
Cloud details: Few Clouds 1300 ft
Partly cloudy 4300 ft
Overcast 11000 ft
2018/10/16 16:54 KMEM 161654Z 35008KT 10SM -RA FEW013 SCT043 OVC110 10/07 A3028 RMK AO2 RAB44 SLP254 P0000 T01000072
 
KBNA - Nashville, TN, USA
Distance from station: NE 97mi, 157km
Updated: Tue, Oct-16-2018 11:53am CDT
Overcast
Overcast
 Wind from N
Wind: N 7 mph , 11 km/h
Temperature: 54°F , 12°C
Dew Point: 46°F , 8°C
Humidity: 77%
Barometer: 30.26 inHg , 1024.7 hPa
Clouds: Overcast
Visibility: 10 miles , 16 km
Cloud details: Overcast 1000 ft
2018/10/16 16:53 KBNA 161653Z 01006KT 10SM OVC010 12/08 A3026 RMK AO2 SLP247 T01170078
KCKV - Clarksville, TN, USA
Distance from station: NNE 99mi, 159km
Updated: Tue, Oct-16-2018 12:35pm CDT
Mostly cloudy
Mostly cloudy
 Wind from NE
Wind: NE 6 mph , 9 km/h
Temperature: 52°F , 11°C
Dew Point: 43°F , 6°C
Humidity: 72%
Barometer: 30.27 inHg , 1025.1 hPa
Clouds: Mostly cloudy
Visibility: 10 miles , 16 km
Cloud details: Mostly cloudy 1500 ft
2018/10/16 17:35 KCKV 161735Z AUTO 05005KT 10SM BKN015 11/06 A3027 RMK AO2 T01110061
 
KPAH - Paducah, KY, USA
Distance from station: NNW 128mi, 205km
Updated: Tue, Oct-16-2018 11:53am CDT
Clear
Clear
 Wind from NNE
Wind: NNE 5 mph , 7 km/h
Temperature: 50°F , 10°C
Wind Chill: 48°F , 9°C
Dew Point: 37°F , 3°C
Humidity: 62%
Barometer: 30.30 inHg , 1026.1 hPa
Clouds: Clear
Visibility: 10 miles , 16 km
2018/10/16 16:53 KPAH 161653Z 02004KT 10SM CLR 10/03 A3030 RMK AO2 SLP259 T01000033
KCHA - Chattanooga, TN, USA
Distance from station: E 165mi, 265km
Updated: Tue, Oct-16-2018 12:28pm CDT
Light rain, Overcast
Light rain, Overcast
 Wind from NW
Wind: NW 5 mph , 7 km/h
Temperature: 63°F , 17°C
Dew Point: 57°F , 14°C
Humidity: 83%
Barometer: 30.19 inHg , 1022.4 hPa
Summary: Light rain
Clouds: Overcast
Visibility: 10 miles , 16 km
Cloud details: Mostly cloudy 1500 ft
Mostly cloudy 4500 ft
Overcast 11000 ft
2018/10/16 17:28 KCHA 161728Z 32004KT 10SM -RA BKN015 BKN045 OVC110 17/14 A3019 RMK AO2 RAB03 P0001 T01720139
 
KTYS - Knoxville, TN, USA
Distance from station: E 234mi, 377km
Updated: Tue, Oct-16-2018 11:53am CDT
Overcast
Overcast
 Wind from calm
Wind: Calm
Temperature: 61°F , 16°C
Dew Point: 55°F , 13°C
Humidity: 83%
Barometer: 30.18 inHg , 1022 hPa
Clouds: Overcast
Visibility: 10 miles , 16 km
Cloud details: Partly cloudy 1300 ft
Overcast 6000 ft
2018/10/16 16:53 KTYS 161653Z 00000KT 10SM SCT013 OVC060 16/13 A3018 RMK AO2 SLP215 T01610133
KLIT - Little Rock, AR, USA
Distance from station: W 240mi, 386km
Updated: Tue, Oct-16-2018 11:53am CDT
Light rain, Overcast
Light rain, Overcast
 Wind from NE
Wind: NE 7 mph , 11 km/h
Temperature: 46°F , 8°C
Wind Chill: 42°F , 6°C
Dew Point: 43°F , 6°C
Humidity: 87%
Barometer: 30.30 inHg , 1026.1 hPa
Summary: Light rain
Clouds: Overcast
Visibility: 7 miles , 11 km
Cloud details: Mostly cloudy 3600 ft
Overcast 10000 ft
2018/10/16 16:53 KLIT 161653Z 04006KT 7SM -RA BKN036 OVC100 08/06 A3030 RMK AO2 SLP263 P0001 T00830061

Refresh Page for latest data.